• Join FlightAware (Why Join?)
  • Login
  • US Flag 
06:39AM EDT


 

Airport Tracker/Info


-or-


 

Live Flight TrackerFlight Track Log ✈ DAL268 ✈ 23-Sep-2013 ✈ KSFO - KJFK

Flight Track Log - Related Links

Times and Time Zones

All times are in EDT time to prevent confusion due to time zone crossing. See the DAL268 flight status page for this flight to view local times or setup timezone preferences in your user account.

Time Position Orientation Groundspeed Altitude Reporting Facility
EDT Latitude Longitude Course Direction KTS MPH feet Rate Location/Type
02:29PM 37.6070 -122.3810 142° Southeast  Level FlightAware
02:32PM 37.7017 -122.0791 63° Northeast  Level FlightAware Approximate
02:32PM 37.6100 -122.3780 63° Northeast 94 108  Level FlightAware
02:33PM 37.6260 -122.3680 26° Northeast 162 186 200 1,380 Climbing FlightAware
02:33PM 37.6410 -122.3530 38° Northeast 174 200 1,200 2,040 Climbing FlightAware
02:33PM 37.6530 -122.3360 48° Northeast 205 236 1,700 1,920 Climbing FlightAware
02:34PM 37.6670 -122.3160 49° Northeast 222 255 2,500 2,400 Climbing FlightAware
02:34PM 37.6667 -122.3167 72° East 207 238 2,600 2,100 Climbing Northern Cal TRACON
02:34PM 37.6790 -122.2980 50° Northeast 241 277 3,200 2,220 Climbing FlightAware
02:37PM 37.7721 -121.8935 65° Northeast  Level FlightAware Approximate
02:38PM 37.8206 -121.7382 67° East  Level FlightAware Approximate
02:39PM 37.8746 -121.5848 72° East  Level FlightAware Approximate
02:39PM 37.8860 -121.8300 72° East 405 466 14,300  Level FlightAware
02:39PM 37.9050 -121.7470 74° East 414 476 15,600 2,100 Climbing FlightAware
02:40PM 37.9230 -121.6690 74° East 423 487 16,800 2,040 Climbing FlightAware
02:41PM 37.9390 -121.5900 76° East 432 497 17,900 1,920 Climbing FlightAware
02:41PM 37.9550 -121.5020 77° East 442 509 19,000 1,620 Climbing FlightAware
02:42PM 37.9720 -121.4090 77° East 453 521 19,900 1,620 Climbing FlightAware
02:42PM 37.9890 -121.3200 76° East 463 533 20,900 1,500 Climbing FlightAware
02:43PM 38.0070 -121.2240 77° East 475 547 21,700 1,380 Climbing FlightAware
02:43PM 38.0260 -121.1240 76° East 481 554 22,600 1,620 Climbing FlightAware
02:44PM 38.0440 -121.0330 76° East 486 559 23,600 1,500 Climbing FlightAware
02:45PM 38.0620 -120.9330 77° East 493 567 24,400 1,380 Climbing FlightAware
02:45PM 38.0810 -120.8310 77° East 501 577 25,300 1,500 Climbing FlightAware
02:46PM 38.0990 -120.7370 76° East 505 581 26,100 1,320 Climbing FlightAware
02:46PM 38.1160 -120.6410 77° East 512 589 26,800 1,200 Climbing FlightAware
02:47PM 38.1370 -120.5270 77° East 518 596 27,600 1,080 Climbing FlightAware
02:48PM 38.1560 -120.4220 77° East 525 604 28,200 1,200 Climbing FlightAware
02:48PM 38.1750 -120.3160 77° East 528 608 29,000 1,500 Climbing FlightAware
02:49PM 38.1940 -120.2100 77° East 527 606 30,000 1,560 Climbing FlightAware
02:49PM 38.2120 -120.1110 77° East 526 605 30,800 1,500 Climbing FlightAware
02:50PM 38.2300 -120.0100 77° East 524 603 31,700 1,500 Climbing FlightAware
02:50PM 38.2490 -119.9020 77° East 520 598 32,600 1,500 Climbing FlightAware
02:51PM 38.2670 -119.8010 77° East 519 597 33,500 1,320 Climbing FlightAware
02:52PM 38.2860 -119.6900 78° East 520 598 34,200 1,080 Climbing FlightAware
02:52PM 38.3040 -119.5900 77° East 521 600 34,800 1,140 Climbing FlightAware
02:53PM 38.3220 -119.4850 78° East 520 598 35,500 1,080 Climbing FlightAware
02:53PM 38.3410 -119.3760 77° East 519 597 36,100 960 Climbing FlightAware
02:54PM 38.3600 -119.2640 78° East 520 598 36,700 720 Climbing FlightAware
02:55PM 38.3760 -119.1670 78° East 520 598 37,000 240 Climbing FlightAware
02:55PM 38.3940 -119.0650 77° East 517 595 37,000  Level FlightAware
02:56PM 38.4110 -118.9590 78° East 517 595 37,000  Level FlightAware
02:56PM 38.4290 -118.8530 78° East 518 596 37,000  Level FlightAware
02:57PM 38.4530 -118.7090 78° East 521 600 37,000  Level FlightAware
02:58PM 38.4690 -118.6110 78° East 523 602 37,000  Level FlightAware
02:58PM 38.4880 -118.4960 78° East 525 604 37,000  Level FlightAware
02:59PM 38.5050 -118.3890 78° East 524 603 37,000  Level FlightAware
02:59PM 38.5230 -118.2790 78° East 523 602 37,000  Level FlightAware
03:00PM 38.5400 -118.1760 78° East 523 602 37,000  Level FlightAware
03:01PM 38.5550 -118.0810 79° East 523 602 37,000  Level FlightAware
03:01PM 38.5720 -117.9710 79° East 525 604 37,000  Level FlightAware
03:02PM 38.5880 -117.8770 78° East 525 604 37,000  Level FlightAware
03:02PM 38.6030 -117.7840 78° East 525 604 37,000  Level FlightAware
03:03PM 38.6180 -117.6960 78° East 525 604 37,000  Level FlightAware
03:04PM 38.6330 -117.6030 78° East 525 604 37,000  Level FlightAware
03:04PM 38.6490 -117.5100 78° East 525 604 37,000  Level FlightAware
03:05PM 38.6640 -117.4170 78° East 525 604 37,000  Level FlightAware
03:05PM 38.6800 -117.3240 78° East 525 604 37,000  Level FlightAware
03:06PM 38.6580 -117.1240 98° East 525 604 37,000  Level FlightAware
03:06PM 38.6680 -117.0020 84° East 524 603 37,000  Level FlightAware
03:07PM 38.6770 -116.8950 84° East 523 602 37,000  Level FlightAware
03:08PM 38.6850 -116.7930 84° East 523 602 37,000  Level FlightAware
03:08PM 38.6960 -116.6640 84° East 524 603 37,000  Level FlightAware
03:09PM 38.7040 -116.5690 84° East 524 603 37,000  Level FlightAware
03:09PM 38.7110 -116.4750 85° East 524 603 37,000  Level FlightAware
03:10PM 38.7190 -116.3800 84° East 524 603 37,000  Level FlightAware
03:10PM 38.7240 -116.3150 84° East 524 603 37,000  Level FlightAware
03:11PM 38.7350 -116.1810 84° East 524 603 37,000  Level FlightAware
03:12PM 38.7430 -116.0860 84° East 524 603 37,000  Level FlightAware
03:13PM 38.7510 -115.9910 84° East 524 603 37,000  Level FlightAware
03:13PM 38.7590 -115.8970 84° East 524 603 37,000  Level FlightAware
03:14PM 38.7660 -115.8020 85° East 524 603 37,000  Level FlightAware
03:14PM 38.7740 -115.7080 84° East 524 603 37,000  Level FlightAware
03:15PM 38.7820 -115.6130 84° East 524 603 37,000  Level FlightAware
03:16PM 38.7900 -115.5180 84° East 524 603 37,000  Level FlightAware
03:16PM 38.7970 -115.4240 85° East 524 603 37,000  Level FlightAware
03:17PM 38.8050 -115.3290 84° East 524 603 37,000  Level FlightAware
03:17PM 38.8130 -115.2340 84° East 524 603 37,000  Level FlightAware
03:18PM 38.8210 -115.1400 84° East 524 603 37,000  Level FlightAware
03:19PM 38.8414 -114.6414 84° East 525 604 37,000  Level Salt Lake Center
03:20PM 38.8539 -114.4553 85° East 524 603 37,000  Level Salt Lake Center
03:21PM 38.8647 -114.2661 86° East 529 609 37,000  Level Salt Lake Center
03:22PM 38.8756 -114.0800 86° East 526 605 37,000  Level Salt Lake Center
03:23PM 38.8861 -113.8922 86° East 528 608 37,000  Level Salt Lake Center
03:24PM 38.8967 -113.7047 86° East 527 606 37,000  Level Salt Lake Center
03:25PM 38.9064 -113.5178 86° East 525 604 37,000  Level Salt Lake Center
03:26PM 38.9175 -113.2928 86° East 525 604 37,000  Level Salt Lake Center
03:27PM 38.9272 -113.1069 86° East 524 603 37,000  Level Salt Lake Center
03:28PM 38.9364 -112.9197 86° East 524 603 37,000  Level Salt Lake Center
03:34PM 38.9790 -111.9340 86° East 527 606 37,000  Level FlightAware
03:34PM 38.9820 -111.8400 88° East 527 606 37,000  Level FlightAware
03:35PM 38.9860 -111.7440 87° East 527 606 37,000  Level FlightAware
03:35PM 38.9900 -111.6480 87° East 527 606 37,000  Level FlightAware
03:36PM 38.9930 -111.5840 87° East 527 606 37,000  Level FlightAware
03:37PM 38.9997 -111.3867 87° East 525 604 37,000  Level Salt Lake Center
03:38PM 39.0056 -111.1728 88° East 525 604 37,000  Level Salt Lake Center
03:39PM 39.0106 -110.9928 88° East 527 606 37,000  Level Salt Lake Center
03:40PM 39.0164 -110.8150 88° East 523 602 37,000  Level Salt Lake Center
03:41PM 39.0219 -110.6078 88° East 521 600 37,000  Level Salt Lake Center
03:42PM 39.0297 -110.4317 87° East 518 596 37,000  Level Salt Lake Center
03:43PM 39.0333 -110.2261 89° East 516 594 37,000  Level Salt Lake Center
03:45PM 39.0425 -109.8453 88° East 517 595 37,000  Level Salt Lake Center
03:46PM 39.0456 -109.6689 89° East 517 595 37,000  Level Salt Lake Center
03:47PM 39.0494 -109.4617 89° East 519 597 37,000  Level Salt Lake Center
03:48PM 39.0517 -109.2856 89° East 517 595 37,000  Level Salt Lake Center
03:49PM 39.0553 -109.0800 89° East 518 596 37,000  Level Salt Lake Center
03:50PM 39.0569 -108.9056 89° East 515 593 37,000  Level Salt Lake Center
03:51PM 39.0589 -108.7869 89° East 513 590 37,000  Level Denver Center
03:52PM 39.0553 -108.6119 91° East 514 592 37,000  Level Denver Center
03:53PM 39.0478 -108.4078 93° East 515 593 37,000  Level Denver Center
03:54PM 39.0439 -108.2319 92° East 516 594 37,000  Level Denver Center
03:55PM 39.0389 -108.0317 92° East 507 583 37,000  Level Denver Center
03:56PM 39.0328 -107.8572 93° East 509 586 37,000  Level Denver Center
03:57PM 39.0272 -107.6544 92° East 510 587 37,000  Level Denver Center
03:58PM 39.0206 -107.4794 93° East 512 589 37,000  Level Denver Center
03:59PM 39.0119 -107.2719 93° East 520 598 37,000  Level Denver Center
04:00PM 39.0044 -107.0931 93° East 523 602 37,000  Level Denver Center
04:06PM 38.9560 -105.9670 93° East 514 592 37,000  Level FlightAware
04:07PM 38.9500 -105.8480 94° East 519 597 37,000  Level FlightAware
04:07PM 38.9450 -105.7500 94° East 524 603 37,000  Level FlightAware
04:08PM 38.9390 -105.6370 94° East 529 609 37,000  Level FlightAware
04:08PM 38.9340 -105.5430 94° East 520 598 37,000  Level FlightAware
04:09PM 38.9270 -105.4010 94° East 509 586 37,000  Level FlightAware
04:10PM 38.9210 -105.2990 94° East 501 577 37,000  Level FlightAware
04:10PM 38.9150 -105.1930 94° East 491 565 37,000  Level FlightAware
04:11PM 38.9100 -105.0890 94° East 497 572 37,000  Level FlightAware
04:11PM 38.9060 -105.0250 95° East 504 580 37,000  Level FlightAware
04:12PM 38.8940 -104.9220 98° East 515 593 37,000  Level FlightAware
04:12PM 38.8710 -104.8280 107° East 508 585 37,000  Level FlightAware
04:13PM 38.8460 -104.7190 106° East 503 579 37,000  Level FlightAware
04:13PM 38.8260 -104.6290 106° East 504 580 37,000  Level FlightAware
04:14PM 38.8020 -104.5270 107° East 507 583 37,000  Level FlightAware
04:15PM 38.7780 -104.4230 106° East 508 585 37,000  Level FlightAware
04:15PM 38.7530 -104.3160 107° East 507 583 37,000  Level FlightAware
04:16PM 38.7310 -104.2190 106° East 503 579 37,000  Level FlightAware
04:16PM 38.7080 -104.1200 107° East 506 582 37,000  Level FlightAware
04:17PM 38.6850 -104.0190 106° East 511 588 37,000  Level FlightAware
04:18PM 38.6630 -103.9210 106° East 508 585 37,000  Level FlightAware
04:18PM 38.6410 -103.8180 105° East 502 578 37,000  Level FlightAware
04:19PM 38.6370 -103.7590 95° East 497 572 37,000  Level FlightAware
04:19PM 38.6430 -103.6600 86° East 496 571 37,000  Level FlightAware
04:20PM 38.6510 -103.5410 85° East 500 575 37,000  Level FlightAware
04:20PM 38.6590 -103.4310 85° East 498 573 37,000  Level FlightAware
04:21PM 38.6660 -103.3250 85° East 500 575 37,000  Level FlightAware
04:22PM 38.6740 -103.2150 85° East 501 577 37,000  Level FlightAware
04:22PM 38.6830 -103.1020 84° East 499 574 37,000  Level FlightAware
04:23PM 38.6890 -102.9920 86° East 499 574 37,000  Level FlightAware
04:23PM 38.6960 -102.8970 85° East 501 577 37,000  Level FlightAware
04:24PM 38.7020 -102.7920 86° East 501 577 37,000  Level FlightAware
04:25PM 38.7100 -102.6790 85° East 500 575 37,000  Level FlightAware
04:25PM 38.7150 -102.5980 85° East 497 572 37,000  Level FlightAware
04:26PM 38.7220 -102.4800 86° East 496 571 37,000  Level FlightAware
04:26PM 38.7280 -102.3990 85° East 496 571 37,000  Level FlightAware
04:27PM 38.7340 -102.3100 85° East 496 571 37,000  Level FlightAware
04:28PM 38.7400 -102.2170 85° East 496 571 37,000  Level FlightAware
04:28PM 38.7460 -102.1330 85° East 496 571 37,000  Level FlightAware
04:29PM 38.7520 -102.0430 85° East 496 571 37,000  Level FlightAware
04:29PM 38.7580 -101.9530 85° East 496 571 37,000  Level FlightAware
04:30PM 38.7640 -101.8610 85° East 496 571 37,000  Level FlightAware
04:31PM 38.7710 -101.7690 84° East 496 571 37,000  Level FlightAware
04:31PM 38.7770 -101.6790 85° East 496 571 37,000  Level FlightAware
04:32PM 38.7830 -101.5900 85° East 496 571 37,000  Level FlightAware
04:32PM 38.7890 -101.4970 85° East 496 571 37,000  Level FlightAware
04:33PM 38.7950 -101.4080 85° East 496 571 37,000  Level FlightAware
04:34PM 38.8010 -101.3180 85° East 496 571 37,000  Level FlightAware
04:34PM 38.8090 -101.2030 85° East 496 571 37,000  Level FlightAware
04:35PM 38.8150 -101.1130 85° East 496 571 37,000  Level FlightAware
04:36PM 38.8210 -101.0230 85° East 496 571 37,000  Level FlightAware
04:37PM 38.8258 -100.5714 85° East 510 587 37,000  Level Kansas City Center
04:37PM 38.8333 -100.4028 87° East 508 585 37,000  Level Denver Center
04:39PM 38.8428 -100.1992 87° East 506 582 37,000  Level Kansas City Center
04:40PM 38.8481 -100.0194 88° East 519 597 37,000  Level Kansas City Center
04:46PM 38.8920 -98.8760 88° East 515 593 37,000  Level FlightAware
04:47PM 38.8980 -98.6970 87° East 504 580 37,000  Level FlightAware
04:47PM 38.9030 -98.5780 87° East 504 580 37,000  Level FlightAware
04:48PM 38.9050 -98.4520 89° East 515 593 37,000  Level FlightAware
04:49PM 38.9080 -98.3500 88° East 515 593 37,000  Level FlightAware
04:49PM 38.9100 -98.2600 88° East 513 590 37,000  Level FlightAware
04:50PM 38.9130 -98.1460 88° East 505 581 37,000  Level FlightAware
04:50PM 38.9160 -98.0260 88° East 502 578 37,000  Level FlightAware
04:51PM 38.9180 -97.9310 88° East 501 577 37,000  Level FlightAware
04:52PM 38.9210 -97.8240 88° East 505 581 37,000  Level FlightAware
04:52PM 38.9230 -97.7160 89° East 508 585 37,000  Level FlightAware
04:53PM 38.9280 -97.6170 86° East 511 588 37,000  Level FlightAware
04:53PM 38.9410 -97.5130 81° East 512 589 37,000  Level FlightAware
04:54PM 38.9570 -97.4060 79° East 510 587 37,000  Level FlightAware
04:55PM 38.9730 -97.3010 79° East 510 587 37,000  Level FlightAware
04:55PM 38.9910 -97.1790 79° East 508 585 37,000  Level FlightAware
04:56PM 39.0070 -97.0700 79° East 508 585 37,000  Level FlightAware
04:56PM 39.0230 -96.9600 79° East 512 589 37,000  Level FlightAware
04:57PM 39.0350 -96.8760 80° East 514 592 37,000  Level FlightAware
04:58PM 39.0530 -96.7550 79° East 517 595 37,000  Level FlightAware
04:58PM 39.0680 -96.6480 80° East 514 592 37,000  Level FlightAware
04:59PM 39.0820 -96.5500 80° East 508 585 37,000  Level FlightAware
04:59PM 39.0960 -96.4510 80° East 503 579 37,000  Level FlightAware
05:00PM 39.1120 -96.3370 80° East 504 580 37,000  Level FlightAware
05:01PM 39.1290 -96.2140 80° East 508 585 37,000  Level FlightAware
05:01PM 39.1410 -96.1220 80° East 507 583 37,000  Level FlightAware
05:02PM 39.1550 -96.0290 79° East 507 583 37,000  Level FlightAware
05:02PM 39.1720 -95.8950 81° East 513 590 37,000  Level FlightAware
05:03PM 39.1860 -95.7960 80° East 513 590 37,000  Level FlightAware
05:03PM 39.2000 -95.6860 81° East 513 590 37,000  Level FlightAware
05:04PM 39.2150 -95.5760 80° East 512 589 37,000  Level FlightAware
05:05PM 39.2270 -95.4850 80° East 510 587 37,000  Level FlightAware
05:05PM 39.2420 -95.3730 80° East 511 588 37,000  Level FlightAware
05:06PM 39.2560 -95.2640 81° East 515 593 37,000  Level FlightAware
05:06PM 39.2690 -95.1650 80° East 514 592 37,000  Level FlightAware
05:07PM 39.2830 -95.0540 81° East 514 592 37,000  Level FlightAware
05:08PM 39.2960 -94.9500 81° East 514 592 37,000  Level FlightAware
05:08PM 39.3100 -94.8380 81° East 516 594 37,000  Level FlightAware
05:09PM 39.3210 -94.7490 81° East 517 595 37,000  Level FlightAware
05:09PM 39.3350 -94.6420 80° East 519 597 37,000  Level FlightAware
05:10PM 39.3500 -94.5220 81° East 521 600 37,000  Level FlightAware
05:10PM 39.3620 -94.4210 81° East 522 601 37,000  Level FlightAware
05:11PM 39.3760 -94.3090 81° East 522 601 37,000  Level FlightAware
05:12PM 39.3890 -94.1970 81° East 521 600 37,000  Level FlightAware
05:12PM 39.4020 -94.0900 81° East 521 600 37,000  Level FlightAware
05:13PM 39.4150 -93.9770 81° East 518 596 37,000  Level FlightAware
05:13PM 39.4270 -93.8770 81° East 517 595 37,000  Level FlightAware
05:14PM 39.4390 -93.7730 81° East 518 596 37,000 600 Level FlightAware
05:15PM 39.4510 -93.6670 82° East 518 596 37,700 1,020 Climbing FlightAware
05:15PM 39.4630 -93.5680 81° East 518 596 38,200 1,080 Climbing FlightAware
05:16PM 39.4760 -93.4500 82° East 514 592 39,000 600 Climbing FlightAware
05:16PM 39.4880 -93.3430 82° East 511 588 39,000  Level FlightAware
05:17PM 39.4990 -93.2440 82° East 509 586 39,000  Level FlightAware
05:17PM 39.5110 -93.1360 82° East 507 583 39,000  Level FlightAware
05:18PM 39.5230 -93.0290 82° East 507 583 39,000  Level FlightAware
05:19PM 39.5340 -92.9310 82° East 508 585 39,000  Level FlightAware
05:19PM 39.5460 -92.8130 82° East 510 587 39,000  Level FlightAware
05:20PM 39.5560 -92.7200 82° East 512 589 39,000  Level FlightAware
05:20PM 39.5680 -92.6060 82° East 513 590 39,000  Level FlightAware
05:21PM 39.5800 -92.4960 82° East 512 589 39,000  Level FlightAware
05:22PM 39.5910 -92.3910 82° East 515 593 39,000  Level FlightAware
05:22PM 39.6020 -92.2860 82° East 515 593 39,000  Level FlightAware
05:23PM 39.6140 -92.1700 82° East 513 590 39,000  Level FlightAware
05:23PM 39.6230 -92.0800 83° East 513 590 39,000  Level FlightAware
05:24PM 39.6340 -91.9680 83° East 511 588 39,000  Level FlightAware
05:25PM 39.6450 -91.8520 83° East 510 587 39,000  Level FlightAware
05:25PM 39.6550 -91.7580 82° East 509 586 39,000  Level FlightAware
05:26PM 39.6650 -91.6580 83° East 511 588 39,000  Level FlightAware
05:26PM 39.6760 -91.5390 83° East 511 588 39,000  Level FlightAware
05:27PM 39.6870 -91.4290 83° East 509 586 39,000  Level FlightAware
05:27PM 39.6960 -91.3340 83° East 508 585 39,000  Level FlightAware
05:28PM 39.7040 -91.2440 83° East 509 586 39,000  Level FlightAware
05:29PM 39.7150 -91.1290 83° East 511 588 39,000  Level FlightAware
05:29PM 39.7260 -91.0110 83° East 510 587 39,000  Level FlightAware
05:30PM 39.7350 -90.9100 83° East 508 585 39,000  Level FlightAware
05:30PM 39.7440 -90.8070 83° East 507 583 39,000  Level FlightAware
05:31PM 39.7530 -90.7040 83° East 507 583 39,000  Level FlightAware
05:31PM 39.7630 -90.5960 83° East 508 585 39,000  Level FlightAware
05:32PM 39.7730 -90.4820 83° East 509 586 39,000  Level FlightAware
05:33PM 39.7830 -90.3680 83° East 509 586 39,000  Level FlightAware
05:33PM 39.7910 -90.2650 84° East 510 587 39,000  Level FlightAware
05:34PM 39.8000 -90.1580 84° East 508 585 39,000  Level FlightAware
05:34PM 39.8080 -90.0670 83° East 507 583 39,000  Level FlightAware
05:35PM 39.8170 -89.9530 84° East 507 583 39,000  Level FlightAware
05:36PM 39.8270 -89.8410 83° East 507 583 39,000  Level FlightAware
05:36PM 39.8330 -89.7620 84° East 508 585 39,000  Level FlightAware
05:37PM 39.8390 -89.6440 86° East 507 583 39,000  Level FlightAware
05:37PM 39.8410 -89.5200 89° East 506 582 39,000  Level FlightAware
05:38PM 39.8410 -89.4250 90° East 506 582 39,000  Level FlightAware
05:38PM 39.8420 -89.3210 89° East 507 583 39,000  Level FlightAware
05:39PM 39.8420 -89.2080 90° East 509 586 39,000  Level FlightAware
05:40PM 39.8420 -89.1030 90° East 509 586 39,000  Level FlightAware
05:40PM 39.8420 -89.0050 90° East 509 586 39,000  Level FlightAware
05:41PM 39.8420 -88.8920 90° East 509 586 39,000  Level FlightAware
05:41PM 39.8420 -88.7790 90° East 510 587 39,000  Level FlightAware
05:42PM 39.8420 -88.6680 90° East 511 588 39,000  Level FlightAware
05:43PM 39.8420 -88.5670 90° East 512 589 39,000  Level FlightAware
05:43PM 39.8420 -88.4600 90° East 512 589 39,000  Level FlightAware
05:44PM 39.8410 -88.3460 91° East 510 587 39,000  Level FlightAware
05:44PM 39.8400 -88.2400 91° East 508 585 39,000  Level FlightAware
05:45PM 39.8400 -88.1340 90° East 509 586 39,000  Level FlightAware
05:46PM 39.8390 -88.0230 91° East 510 587 39,000  Level FlightAware
05:46PM 39.8380 -87.9260 91° East 509 586 39,000  Level FlightAware
05:47PM 39.8370 -87.8190 91° East 510 587 39,000  Level FlightAware
05:47PM 39.8360 -87.7070 91° East 509 586 39,000  Level FlightAware
05:48PM 39.8350 -87.5930 91° East 509 586 39,000  Level FlightAware
05:48PM 39.8340 -87.4880 91° East 509 586 39,000  Level FlightAware
05:49PM 39.8320 -87.3760 91° East 510 587 39,000  Level FlightAware
05:50PM 39.8310 -87.2710 91° East 512 589 39,000  Level FlightAware
05:50PM 39.8290 -87.1610 91° East 514 592 39,000  Level FlightAware
05:51PM 39.8280 -87.0490 91° East 514 592 39,000  Level FlightAware
05:51PM 39.8260 -86.9420 91° East 513 590 39,000  Level FlightAware
05:52PM 39.8240 -86.8360 91° East 514 592 39,000  Level FlightAware
05:53PM 39.8220 -86.7250 91° East 515 593 39,000  Level FlightAware
05:53PM 39.8200 -86.6290 92° East 515 593 39,000  Level FlightAware
05:54PM 39.8180 -86.5150 91° East 517 595 39,000  Level FlightAware
05:54PM 39.8180 -86.3930 90° East 514 592 39,000  Level FlightAware
05:55PM 39.8340 -86.2770 80° East 507 583 39,000  Level FlightAware
05:56PM 39.8560 -86.1700 75° East 507 583 39,000  Level FlightAware
05:56PM 39.8790 -86.0620 74° East 509 586 39,000  Level FlightAware
05:57PM 39.9000 -85.9650 74° East 510 587 39,000  Level FlightAware
05:57PM 39.9200 -85.8720 74° East 510 587 39,000  Level FlightAware
05:58PM 39.9450 -85.7520 75° East 509 586 39,000  Level FlightAware
05:59PM 39.9660 -85.6550 74° East 508 585 39,000  Level FlightAware
05:59PM 39.9870 -85.5500 75° East 506 582 39,000  Level FlightAware
06:00PM 40.0070 -85.4530 75° East 505 581 39,000  Level FlightAware
06:00PM 40.0280 -85.3520 75° East 505 581 39,000  Level FlightAware
06:01PM 40.0500 -85.2460 75° East 505 581 39,000  Level FlightAware
06:01PM 40.0710 -85.1390 76° East 506 582 39,000  Level FlightAware
06:02PM 40.0920 -85.0360 75° East 505 581 39,000  Level FlightAware
06:03PM 40.1120 -84.9360 75° East 505 581 39,000  Level FlightAware
06:03PM 40.1330 -84.8320 75° East 506 582 39,000  Level FlightAware
06:04PM 40.1510 -84.7490 74° East 498 573 39,000  Level FlightAware
06:04PM 40.1900 -84.6530 62° Northeast 487 560 39,000  Level FlightAware
06:05PM 40.2260 -84.5680 61° Northeast 487 560 39,000  Level FlightAware
06:05PM 40.2620 -84.4770 63° Northeast 487 560 39,000  Level FlightAware
06:06PM 40.2980 -84.3810 64° Northeast 491 565 39,000  Level FlightAware
06:07PM 40.3280 -84.2970 65° Northeast 492 566 39,000  Level FlightAware
06:07PM 40.3630 -84.2010 64° Northeast 492 566 39,000  Level FlightAware
06:08PM 40.3990 -84.1020 64° Northeast 495 570 39,000  Level FlightAware
06:08PM 40.4360 -84.0080 63° Northeast 493 567 39,000  Level FlightAware
06:09PM 40.4760 -83.9050 63° Northeast 494 568 39,000  Level FlightAware
06:09PM 40.5080 -83.8230 63° Northeast 495 570 39,000  Level FlightAware
06:10PM 40.5460 -83.7240 63° Northeast 494 568 39,000  Level FlightAware
06:11PM 40.5710 -83.6590 63° Northeast 495 570 39,000  Level FlightAware
06:11PM 40.6190 -83.5350 63° Northeast 494 568 39,000  Level FlightAware
06:12PM 40.6540 -83.4440 63° Northeast 494 568 39,000  Level FlightAware
06:12PM 40.6880 -83.3540 63° Northeast 491 565 39,000  Level FlightAware
06:13PM 40.7290 -83.2470 63° Northeast 487 560 39,000  Level FlightAware
06:14PM 40.7590 -83.1590 66° East 492 566 39,000  Level FlightAware
06:14PM 40.7840 -83.0620 71° East 497 572 39,000  Level FlightAware
06:15PM 40.8070 -82.9520 75° East 496 571 39,000  Level FlightAware
06:15PM 40.8290 -82.8480 74° East 496 571 39,000  Level FlightAware
06:16PM 40.8480 -82.7540 75° East 496 571 39,000  Level FlightAware
06:17PM 40.8680 -82.6550 75° East 494 568 39,000  Level FlightAware
06:17PM 40.8850 -82.5700 75° East 494 568 39,000  Level FlightAware
06:18PM 40.9110 -82.4380 75° East 496 571 39,000  Level FlightAware
06:18PM 40.9290 -82.3510 75° East 499 574 39,000  Level FlightAware
06:19PM 40.9550 -82.2150 76° East 500 575 39,000  Level FlightAware
06:20PM 40.9690 -82.1460 75° East 499 574 39,000  Level FlightAware
06:20PM 40.9880 -82.0450 76° East 498 573 39,000  Level FlightAware
06:21PM 41.0040 -81.9650 75° East 497 572 39,000  Level FlightAware
06:21PM 41.0310 -81.8270 75° East 495 570 39,000  Level FlightAware
06:22PM 41.0520 -81.7220 75° East 498 573 39,000  Level FlightAware
06:22PM 41.0700 -81.6330 75° East 499 574 39,000  Level FlightAware
06:23PM 41.0910 -81.5220 76° East 500 575 39,000  Level FlightAware
06:23PM 41.1090 -81.4290 76° East 499 574 39,000  Level FlightAware
06:24PM 41.1320 -81.3120 75° East 496 571 39,000  Level FlightAware
06:25PM 41.1520 -81.2040 76° East 495 570 39,000  Level FlightAware
06:25PM 41.1710 -81.1080 75° East 495 570 39,000  Level FlightAware
06:26PM 41.1910 -81.0020 76° East 496 571 39,000  Level FlightAware
06:26PM 41.2090 -80.9080 76° East 497 572 39,000  Level FlightAware
06:27PM 41.2310 -80.7890 76° East 495 570 39,000  Level FlightAware
06:28PM 41.2500 -80.6870 76° East 493 567 39,000  Level FlightAware
06:28PM 41.2700 -80.5780 76° East 492 566 39,000  Level FlightAware
06:29PM 41.2940 -80.4500 76° East 492 566 39,000  Level FlightAware
06:30PM 41.3110 -80.3550 77° East 494 568 39,000  Level FlightAware
06:30PM 41.3300 -80.2490 77° East 493 567 39,000  Level FlightAware
06:31PM 41.3520 -80.1280 76° East 491 565 39,000  Level FlightAware
06:31PM 41.3730 -80.0150 76° East 491 565 39,000  Level FlightAware
06:32PM 41.3900 -79.9200 77° East 495 570 39,000  Level FlightAware
06:33PM 41.4070 -79.8240 77° East 500 575 39,000  Level FlightAware
06:33PM 41.4270 -79.7090 77° East 505 581 39,000  Level FlightAware
06:34PM 41.4450 -79.6070 77° East 506 582 39,000  Level FlightAware
06:34PM 41.4690 -79.4710 77° East 508 585 39,000  Level FlightAware
06:35PM 41.4910 -79.3420 77° East 506 582 39,000  Level FlightAware
06:36PM 41.5110 -79.2300 77° East 504 580 39,000  Level FlightAware
06:36PM 41.5300 -79.1190 77° East 501 577 39,000  Level FlightAware
06:37PM 41.5480 -79.0120 77° East 499 574 39,000  Level FlightAware
06:38PM 41.5650 -78.9110 77° East 499 574 39,000  Level FlightAware
06:38PM 41.5830 -78.8050 77° East 499 574 39,000  Level FlightAware
06:39PM 41.6010 -78.6960 78° East 501 577 39,000  Level FlightAware
06:39PM 41.6210 -78.5790 77° East 503 579 39,000  Level FlightAware
06:40PM 41.6380 -78.4750 78° East 504 580 39,000  Level FlightAware
06:41PM 41.6540 -78.3770 78° East 505 581 39,000  Level FlightAware
06:41PM 41.6690 -78.2840 78° East 504 580 39,000  Level FlightAware
06:42PM 41.6880 -78.1700 77° East 505 581 39,000  Level FlightAware
06:42PM 41.7080 -78.0440 78° East 506 582 39,000  Level FlightAware
06:43PM 41.7240 -77.9440 78° East 506 582 39,000  Level FlightAware
06:44PM 41.7400 -77.8420 78° East 506 582 39,000  Level FlightAware
06:44PM 41.7610 -77.7120 78° East 506 582 39,000  Level FlightAware
06:45PM 41.7760 -77.6050 79° East 508 585 39,000  Level FlightAware
06:45PM 41.7680 -77.4870 95° East 521 600 39,000  Level FlightAware
06:46PM 41.7420 -77.3840 109° East 524 603 39,000  Level FlightAware
06:47PM 41.7120 -77.2730 110° East 525 604 39,000  Level FlightAware
06:47PM 41.6820 -77.1650 110° East 526 605 39,000  Level FlightAware
06:48PM 41.6550 -77.0650 110° East 526 605 39,000  Level FlightAware
06:48PM 41.6270 -76.9620 110° East 525 604 39,000  Level FlightAware
06:49PM 41.6010 -76.8660 110° East 526 605 39,000  Level FlightAware
06:49PM 41.5680 -76.7450 110° East 527 606 39,000 -180 Level FlightAware
06:50PM 41.5370 -76.6310 110° East 525 604 38,800 -540 Descending FlightAware
06:51PM 41.5100 -76.5360 111° Southeast 523 602 38,400 -840 Descending FlightAware
06:51PM 41.4800 -76.4240 110° East 522 601 37,900 -840 Descending FlightAware
06:52PM 41.4440 -76.2950 110° East 520 598 37,300 -1,200 Descending FlightAware
06:52PM 41.4190 -76.2070 111° Southeast 513 590 36,500 -1,800 Descending FlightAware
06:53PM 41.3900 -76.1040 111° Southeast 502 578 35,400 -3,120 Descending FlightAware
06:54PM 41.3580 -75.9890 110° East 524 603 32,600 -3,600 Descending FlightAware
06:54PM 41.3300 -75.8900 111° Southeast 518 596 31,100 -2,940 Descending FlightAware
06:55PM 41.2980 -75.7770 111° Southeast 511 588 29,200 -2,880 Descending FlightAware
06:55PM 41.2730 -75.6920 111° Southeast 504 580 27,800 -2,640 Descending FlightAware
06:56PM 41.2400 -75.5900 113° Southeast 494 568 26,300 -2,700 Descending FlightAware
06:56PM 41.2120 -75.5060 114° Southeast 484 557 24,900 -2,520 Descending FlightAware
06:57PM 41.1750 -75.3980 114° Southeast 474 545 23,300 -1,500 Descending FlightAware
06:58PM 41.1420 -75.2980 114° Southeast 467 537 23,000 -300 Descending FlightAware
06:58PM 41.1140 -75.2150 114° Southeast 466 536 23,000  Level FlightAware
06:59PM 41.0800 -75.1170 115° Southeast 469 540 23,000 -360 Level FlightAware
06:59PM 41.0520 -75.0330 114° Southeast 465 535 22,600 -1,200 Descending FlightAware
07:00PM 41.0190 -74.9370 114° Southeast 461 531 21,600 -1,380 Descending FlightAware
07:01PM 40.9940 -74.8420 109° East 431 496 21,000 -540 Descending FlightAware
07:01PM 40.9840 -74.7610 99° East 392 451 21,000 -180 Level FlightAware
07:02PM 40.9820 -74.6580 91° East 358 412 20,800 -540 Descending FlightAware
07:03PM 41.0010 -74.5860 71° East 361 415 20,300 -900 Descending FlightAware
07:03PM 41.0010 -74.5740 90° East 362 417 20,200 -780 Descending FlightAware
07:03PM 40.9922 -74.5069 90° East 364 419 19,800 -780 Descending New York Center
07:04PM 40.9669 -74.3792 105° East 357 411 19,000 -420 Descending New York Center
07:05PM 40.9378 -74.2403 105° East 363 418 19,000  Level New York Center
07:06PM 40.9167 -74.1333 105° East 366 421 19,000  Level New York TRACON
07:07PM 40.8500 -74.0000 123° Southeast 365 420 19,000 -1,440 Level New York TRACON
07:13PM 40.5390 -73.4770 123° Southeast 291 335 9,300 -1,740 Descending FlightAware
07:13PM 40.5230 -73.5030 231° Southwest 292 336 8,600 -2,160 Descending FlightAware
07:14PM 40.5150 -73.5140 226° Southwest 295 339 8,300 -2,160 Descending FlightAware
07:14PM 40.5080 -73.5210 217° Southwest 298 343 8,100 -1,500 Descending FlightAware
07:14PM 40.4810 -73.5400 208° Southwest 295 339 7,600 -1,380 Descending FlightAware
07:14PM 40.4740 -73.5480 221° Southwest 290 334 7,400 -1,800 Descending FlightAware
07:14PM 40.4580 -73.5740 231° Southwest 284 327 6,800 -1,980 Descending FlightAware
07:15PM 40.4410 -73.6040 233° Southwest 282 325 6,100 -2,100 Descending FlightAware
07:15PM 40.4250 -73.6310 232° Southwest 281 323 5,400 -2,040 Descending FlightAware
07:15PM 40.4120 -73.6560 236° Southwest 283 326 4,800 -1,500 Descending FlightAware
07:16PM 40.3930 -73.6910 235° Southwest 281 323 4,300 -1,140 Descending FlightAware
07:16PM 40.3790 -73.7170 235° Southwest 275 316 4,000 -1,080 Descending FlightAware
07:16PM 40.3670 -73.7380 233° Southwest 269 310 3,700 -1,080 Descending FlightAware
07:17PM 40.3540 -73.7630 236° Southwest 265 305 3,400 -1,200 Descending FlightAware
07:17PM 40.3500 -73.7820 255° West 259 298 3,100 -1,500 Descending FlightAware
07:17PM 40.3500 -73.7880 270° West 257 296 3,000 -1,080 Descending FlightAware
07:17PM 40.3540 -73.8070 285° West 250 288 2,800 -1,140 Descending FlightAware
07:18PM 40.3640 -73.8360 294° West 247 284 2,400 -1,200 Descending FlightAware
07:18PM 40.3740 -73.8600 299° West 245 282 2,000 -720 Descending FlightAware
07:18PM 40.3860 -73.8930 296° West 228 262 1,900 -180 Descending FlightAware
07:19PM 40.3960 -73.9150 301° West 212 244 1,900  Level FlightAware
07:19PM 40.4020 -73.9210 323° Northwest 204 235 1,900  Level FlightAware
07:19PM 40.4090 -73.9240 342° North 197 227 1,900  Level FlightAware
07:19PM 40.4120 -73.9250 346° North 190 219 1,900  Level FlightAware
07:19PM 40.4320 -73.9180 15° North 174 200 1,900  Level FlightAware
07:20PM 40.4500 -73.9080 23° Northeast 168 193 1,900  Level FlightAware
07:20PM 40.4650 -73.8960 31° Northeast 170 196 1,900  Level FlightAware
07:20PM 40.4750 -73.8880 31° Northeast 171 197 1,900  Level FlightAware
07:21PM 40.4890 -73.8770 31° Northeast 171 197 1,900  Level FlightAware
07:21PM 40.5030 -73.8660 31° Northeast 170 196 1,900  Level FlightAware
07:21PM 40.5160 -73.8550 33° Northeast 169 194 1,900  Level FlightAware
07:22PM 40.5300 -73.8450 28° Northeast 172 198 1,900  Level FlightAware
07:22PM 40.5380 -73.8380 34° Northeast 174 200 1,900 -540 Level FlightAware
07:22PM 40.5540 -73.8260 30° Northeast 169 194 1,600 -840 Descending FlightAware
07:23PM 40.5670 -73.8160 30° Northeast 152 175 1,300 -840 Descending FlightAware
07:23PM 40.5780 -73.8080 29° Northeast 139 160 1,100 -660 Descending FlightAware
07:23PM 40.5870 -73.8000 34° Northeast 128 147 900 -780 Descending FlightAware
07:24PM 40.5970 -73.7930 28° Northeast 124 143 600 -780 Descending FlightAware
07:24PM 40.6070 -73.7850 31° Northeast 126 145 400 -720 Descending FlightAware
07:24PM 40.6200 -73.7750 30° Northeast 130 150 100 -720 Descending FlightAware
07:25PM 40.6290 -73.7680 31° Northeast 127 146 -420 Descending FlightAware